sensor_id;sensor_type;location;lat;lon;timestamp;temperature;humidity
8541;DHT22;4308;51.294;6.590;2022-07-30T06:40:55;23.60;99.90
8541;DHT22;4308;51.294;6.590;2022-07-30T06:43:28;23.90;99.90
8541;DHT22;4308;51.294;6.590;2022-07-30T06:55:45;24.20;96.50
8541;DHT22;4308;51.294;6.590;2022-07-30T12:05:02;26.40;81.30
8541;DHT22;4308;51.294;6.590;2022-07-30T12:07:29;26.30;81.80
8541;DHT22;4308;51.294;6.590;2022-07-30T12:13:06;27.30;81.40
8541;DHT22;4308;51.294;6.590;2022-07-30T12:15:36;27.30;81.20
8541;DHT22;4308;51.294;6.590;2022-07-30T18:37:00;25.30;80.50
8541;DHT22;4308;51.294;6.590;2022-07-30T18:39:28;25.40;81.70
8541;DHT22;4308;51.294;6.590;2022-07-30T18:41:55;25.20;82.30
8541;DHT22;4308;51.294;6.590;2022-07-30T18:44:22;25.10;83.50
8541;DHT22;4308;51.294;6.590;2022-07-30T18:46:49;25.10;83.30
8541;DHT22;4308;51.294;6.590;2022-07-30T18:49:16;24.90;83.20
8541;DHT22;4308;51.294;6.590;2022-07-30T18:52:05;24.90;83.10
8541;DHT22;4308;51.294;6.590;2022-07-30T18:54:33;24.90;83.30
8541;DHT22;4308;51.294;6.590;2022-07-30T19:06:55;24.70;99.90
8541;DHT22;4308;51.294;6.590;2022-07-30T19:19:13;24.40;83.40
8541;DHT22;4308;51.294;6.590;2022-07-30T19:21:41;24.50;84.50
8541;DHT22;4308;51.294;6.590;2022-07-30T19:24:08;24.40;84.60
8541;DHT22;4308;51.294;6.590;2022-07-30T19:26:36;24.40;85.10
8541;DHT22;4308;51.294;6.590;2022-07-30T19:29:05;24.40;85.10
8541;DHT22;4308;51.294;6.590;2022-07-30T19:31:33;24.40;84.80
8541;DHT22;4308;51.294;6.590;2022-07-30T19:34:00;24.40;84.90
8541;DHT22;4308;51.294;6.590;2022-07-30T19:36:27;24.40;84.50
8541;DHT22;4308;51.294;6.590;2022-07-30T19:38:55;24.30;84.60
8541;DHT22;4308;51.294;6.590;2022-07-30T19:41:23;24.20;84.60
8541;DHT22;4308;51.294;6.590;2022-07-30T19:43:51;24.20;85.00
8541;DHT22;4308;51.294;6.590;2022-07-30T19:46:38;24.20;84.90
8541;DHT22;4308;51.294;6.590;2022-07-30T19:49:08;24.20;84.80
8541;DHT22;4308;51.294;6.590;2022-07-30T19:51:36;24.20;84.90
8541;DHT22;4308;51.294;6.590;2022-07-30T19:54:24;24.20;85.30
8541;DHT22;4308;51.294;6.590;2022-07-30T19:56:51;24.10;86.00
8541;DHT22;4308;51.294;6.590;2022-07-30T19:59:19;24.20;85.40
8541;DHT22;4308;51.294;6.590;2022-07-30T20:02:06;24.20;85.60
8541;DHT22;4308;51.294;6.590;2022-07-30T20:04:36;24.10;86.20
8541;DHT22;4308;51.294;6.590;2022-07-30T20:07:03;24.20;85.90
8541;DHT22;4308;51.294;6.590;2022-07-30T20:09:30;24.10;85.60
8541;DHT22;4308;51.294;6.590;2022-07-30T20:11:58;24.10;86.00
8541;DHT22;4308;51.294;6.590;2022-07-30T20:14:28;24.00;85.80
8541;DHT22;4308;51.294;6.590;2022-07-30T20:16:56;24.10;86.00
8541;DHT22;4308;51.294;6.590;2022-07-30T20:19:28;24.00;86.20
8541;DHT22;4308;51.294;6.590;2022-07-30T20:22:02;24.00;86.10
8541;DHT22;4308;51.294;6.590;2022-07-30T20:24:30;24.00;86.50
8541;DHT22;4308;51.294;6.590;2022-07-30T20:26:58;24.00;86.50
8541;DHT22;4308;51.294;6.590;2022-07-30T20:29:25;24.00;86.40
8541;DHT22;4308;51.294;6.590;2022-07-30T20:31:53;24.00;86.50
8541;DHT22;4308;51.294;6.590;2022-07-30T20:34:20;23.90;86.60
8541;DHT22;4308;51.294;6.590;2022-07-30T20:36:50;23.90;86.70
8541;DHT22;4308;51.294;6.590;2022-07-30T20:39:19;23.90;86.60
8541;DHT22;4308;51.294;6.590;2022-07-30T20:41:47;23.90;86.40
8541;DHT22;4308;51.294;6.590;2022-07-30T20:44:16;23.80;86.40
8541;DHT22;4308;51.294;6.590;2022-07-30T20:46:50;23.80;86.60
8541;DHT22;4308;51.294;6.590;2022-07-30T20:49:19;23.80;86.70
8541;DHT22;4308;51.294;6.590;2022-07-30T20:52:00;23.80;86.80
8541;DHT22;4308;51.294;6.590;2022-07-30T20:54:29;23.80;86.80
8541;DHT22;4308;51.294;6.590;2022-07-30T20:56:58;23.80;87.20
8541;DHT22;4308;51.294;6.590;2022-07-30T20:59:26;23.70;87.30
8541;DHT22;4308;51.294;6.590;2022-07-30T21:01:54;23.70;87.20
8541;DHT22;4308;51.294;6.590;2022-07-30T21:04:22;23.70;87.20
8541;DHT22;4308;51.294;6.590;2022-07-30T21:06:52;23.60;87.50
8541;DHT22;4308;51.294;6.590;2022-07-30T21:09:19;23.60;87.90
8541;DHT22;4308;51.294;6.590;2022-07-30T21:11:46;23.60;88.20
8541;DHT22;4308;51.294;6.590;2022-07-30T21:14:17;23.50;88.40
8541;DHT22;4308;51.294;6.590;2022-07-30T21:16:46;23.50;87.90
8541;DHT22;4308;51.294;6.590;2022-07-30T21:19:13;23.50;88.80
8541;DHT22;4308;51.294;6.590;2022-07-30T21:21:42;23.40;88.10
8541;DHT22;4308;51.294;6.590;2022-07-30T21:24:15;23.40;88.10
8541;DHT22;4308;51.294;6.590;2022-07-30T21:26:44;23.30;88.40
8541;DHT22;4308;51.294;6.590;2022-07-30T21:29:11;23.30;88.30
8541;DHT22;4308;51.294;6.590;2022-07-30T21:31:41;23.30;88.50
8541;DHT22;4308;51.294;6.590;2022-07-30T21:34:29;23.30;89.00
8541;DHT22;4308;51.294;6.590;2022-07-30T21:37:06;23.30;89.50
8541;DHT22;4308;51.294;6.590;2022-07-30T21:39:33;23.30;89.90
8541;DHT22;4308;51.294;6.590;2022-07-30T21:42:07;23.20;90.00
8541;DHT22;4308;51.294;6.590;2022-07-30T21:44:35;23.30;90.20
8541;DHT22;4308;51.294;6.590;2022-07-30T21:47:07;23.20;90.20
8541;DHT22;4308;51.294;6.590;2022-07-30T21:49:37;23.20;90.50
8541;DHT22;4308;51.294;6.590;2022-07-30T21:52:06;23.20;90.70
8541;DHT22;4308;51.294;6.590;2022-07-30T21:54:34;23.20;91.20
8541;DHT22;4308;51.294;6.590;2022-07-30T21:57:17;23.20;91.30
8541;DHT22;4308;51.294;6.590;2022-07-30T21:59:53;23.20;91.40
8541;DHT22;4308;51.294;6.590;2022-07-30T22:02:22;23.20;91.30
8541;DHT22;4308;51.294;6.590;2022-07-30T22:04:51;23.20;91.50
8541;DHT22;4308;51.294;6.590;2022-07-30T22:07:19;23.10;91.50
8541;DHT22;4308;51.294;6.590;2022-07-30T22:09:48;23.10;91.70
8541;DHT22;4308;51.294;6.590;2022-07-30T22:12:15;23.10;91.80
8541;DHT22;4308;51.294;6.590;2022-07-30T22:14:44;23.10;91.90
8541;DHT22;4308;51.294;6.590;2022-07-30T22:17:16;23.00;91.80
8541;DHT22;4308;51.294;6.590;2022-07-30T22:20:04;23.00;92.00
8541;DHT22;4308;51.294;6.590;2022-07-30T22:22:37;23.00;91.90
8541;DHT22;4308;51.294;6.590;2022-07-30T22:25:06;23.00;91.90
8541;DHT22;4308;51.294;6.590;2022-07-30T22:27:37;22.90;92.20
8541;DHT22;4308;51.294;6.590;2022-07-30T22:30:08;22.90;92.00
8541;DHT22;4308;51.294;6.590;2022-07-30T22:32:36;22.80;92.20
8541;DHT22;4308;51.294;6.590;2022-07-30T22:35:05;22.80;92.20
8541;DHT22;4308;51.294;6.590;2022-07-30T22:37:33;22.80;92.10
8541;DHT22;4308;51.294;6.590;2022-07-30T22:40:00;22.70;92.20
8541;DHT22;4308;51.294;6.590;2022-07-30T22:42:28;22.70;92.00
8541;DHT22;4308;51.294;6.590;2022-07-30T22:44:56;22.60;92.10
8541;DHT22;4308;51.294;6.590;2022-07-30T22:47:23;22.60;92.30
8541;DHT22;4308;51.294;6.590;2022-07-30T22:50:11;22.50;92.30
8541;DHT22;4308;51.294;6.590;2022-07-30T22:52:43;22.50;92.40
8541;DHT22;4308;51.294;6.590;2022-07-30T22:55:30;22.50;92.50
8541;DHT22;4308;51.294;6.590;2022-07-30T22:57:58;22.50;92.50
8541;DHT22;4308;51.294;6.590;2022-07-30T23:00:25;22.50;92.50
8541;DHT22;4308;51.294;6.590;2022-07-30T23:02:55;22.50;92.70
8541;DHT22;4308;51.294;6.590;2022-07-30T23:05:23;22.50;92.80
8541;DHT22;4308;51.294;6.590;2022-07-30T23:07:51;22.50;92.60
8541;DHT22;4308;51.294;6.590;2022-07-30T23:10:18;22.50;92.80
8541;DHT22;4308;51.294;6.590;2022-07-30T23:12:48;22.50;92.80
8541;DHT22;4308;51.294;6.590;2022-07-30T23:15:16;22.50;93.00
8541;DHT22;4308;51.294;6.590;2022-07-30T23:17:44;22.50;92.60
8541;DHT22;4308;51.294;6.590;2022-07-30T23:20:14;22.50;92.90
8541;DHT22;4308;51.294;6.590;2022-07-30T23:22:41;22.50;92.60
8541;DHT22;4308;51.294;6.590;2022-07-30T23:25:09;22.40;92.70
8541;DHT22;4308;51.294;6.590;2022-07-30T23:27:37;22.40;92.70
8541;DHT22;4308;51.294;6.590;2022-07-30T23:30:09;22.40;92.60
8541;DHT22;4308;51.294;6.590;2022-07-30T23:32:37;22.40;92.60
8541;DHT22;4308;51.294;6.590;2022-07-30T23:35:06;22.30;92.60
8541;DHT22;4308;51.294;6.590;2022-07-30T23:37:34;22.30;92.80
8541;DHT22;4308;51.294;6.590;2022-07-30T23:40:15;22.20;92.90
8541;DHT22;4308;51.294;6.590;2022-07-30T23:42:43;22.20;93.00
8541;DHT22;4308;51.294;6.590;2022-07-30T23:45:10;22.10;93.00
8541;DHT22;4308;51.294;6.590;2022-07-30T23:47:37;22.00;93.20
8541;DHT22;4308;51.294;6.590;2022-07-30T23:52:52;21.80;93.10
8541;DHT22;4308;51.294;6.590;2022-07-30T23:55:20;21.70;93.60
